createdAt,value
2019-05-14T00:02:02.752Z,2.92
2019-05-14T00:04:31.681Z,2.60
2019-05-14T00:07:01.127Z,3.30
2019-05-14T00:09:32.166Z,3.40
2019-05-14T00:12:02.690Z,3.00
2019-05-14T00:14:39.864Z,3.02
2019-05-14T00:17:03.341Z,2.52
2019-05-14T00:19:32.894Z,3.42
2019-05-14T00:22:02.211Z,2.70
2019-05-14T00:24:32.335Z,3.08
2019-05-14T00:27:02.209Z,3.10
2019-05-14T00:29:32.083Z,3.37
2019-05-14T00:32:01.905Z,2.80
2019-05-14T00:34:31.645Z,3.25
2019-05-14T00:37:01.617Z,2.80
2019-05-14T00:39:32.115Z,2.70
2019-05-14T00:42:01.872Z,2.70
2019-05-14T00:44:32.420Z,2.85
2019-05-14T00:47:02.286Z,2.60
2019-05-14T00:49:31.848Z,2.83
2019-05-14T00:52:02.259Z,2.80
2019-05-14T00:54:32.209Z,2.72
2019-05-14T00:57:01.647Z,2.52
2019-05-14T00:59:32.182Z,2.47
2019-05-14T01:02:02.954Z,2.67
2019-05-14T01:04:32.513Z,2.55
2019-05-14T01:07:01.779Z,2.60
2019-05-14T01:09:31.560Z,2.62
2019-05-14T01:12:01.843Z,2.40
2019-05-14T01:14:31.829Z,2.90
2019-05-14T01:17:01.992Z,2.40
2019-05-14T01:19:31.683Z,2.60
2019-05-14T01:22:01.802Z,2.65
2019-05-14T01:24:32.240Z,2.65
2019-05-14T01:27:01.913Z,2.45
2019-05-14T01:29:31.778Z,2.75
2019-05-14T01:32:01.542Z,2.75
2019-05-14T01:34:32.400Z,2.50
2019-05-14T01:37:02.559Z,2.50
2019-05-14T01:39:32.228Z,2.70
2019-05-14T01:42:02.405Z,2.30
2019-05-14T01:44:32.077Z,2.40
2019-05-14T01:47:01.954Z,2.50
2019-05-14T01:49:31.876Z,2.58
2019-05-14T01:52:01.797Z,2.80
2019-05-14T01:54:31.791Z,2.33
2019-05-14T01:57:02.093Z,2.25
2019-05-14T01:59:32.328Z,2.40
2019-05-14T02:02:02.317Z,2.95
2019-05-14T02:04:32.207Z,2.62
2019-05-14T02:07:02.225Z,2.50
2019-05-14T02:09:32.228Z,2.60
2019-05-14T02:12:02.227Z,2.45
2019-05-14T02:14:31.697Z,2.45
2019-05-14T02:17:01.937Z,2.52
2019-05-14T02:19:31.801Z,2.35
2019-05-14T02:22:02.031Z,2.17
2019-05-14T02:24:32.190Z,2.90
2019-05-14T02:27:02.020Z,2.50
2019-05-14T02:29:32.052Z,2.45
2019-05-14T02:32:01.856Z,2.33
2019-05-14T02:34:31.091Z,2.10
2019-05-14T02:37:00.666Z,2.55
2019-05-14T02:39:30.168Z,2.60
2019-05-14T02:41:59.350Z,2.15
2019-05-14T02:44:29.793Z,2.80
2019-05-14T02:46:59.570Z,2.47
2019-05-14T02:49:29.923Z,2.50
2019-05-14T02:51:59.764Z,2.20
2019-05-14T02:54:29.711Z,2.10
2019-05-14T02:57:00.088Z,2.40
2019-05-14T02:59:30.728Z,2.35
2019-05-14T03:02:00.276Z,2.45
2019-05-14T03:04:30.203Z,2.40
2019-05-14T03:07:00.233Z,2.42
2019-05-14T03:09:29.664Z,2.83
2019-05-14T03:11:59.670Z,2.25
2019-05-14T03:14:30.269Z,2.30
2019-05-14T03:16:59.856Z,2.50
2019-05-14T03:19:29.753Z,2.02
2019-05-14T03:22:00.193Z,2.10
2019-05-14T03:24:29.918Z,2.27
2019-05-14T03:26:59.105Z,2.50
2019-05-14T03:29:30.814Z,2.45
2019-05-14T03:32:03.132Z,2.30
2019-05-14T03:34:33.199Z,2.25
2019-05-14T03:37:03.232Z,2.72
2019-05-14T03:39:31.815Z,2.30
2019-05-14T03:42:00.957Z,2.40
2019-05-14T03:44:30.178Z,2.17
2019-05-14T03:47:04.654Z,2.35
2019-05-14T03:49:30.281Z,2.22
2019-05-14T03:52:00.387Z,2.47
2019-05-14T03:54:30.441Z,2.30
2019-05-14T03:57:00.288Z,2.55
2019-05-14T03:59:29.892Z,2.80
2019-05-14T04:02:00.028Z,2.47
2019-05-14T04:04:30.126Z,2.72
2019-05-14T04:07:00.636Z,2.77
2019-05-14T04:09:30.170Z,2.67
2019-05-14T04:11:59.633Z,2.62
2019-05-14T04:14:30.012Z,2.65
2019-05-14T04:17:08.389Z,2.90
2019-05-14T04:19:30.167Z,2.80
2019-05-14T04:22:00.052Z,2.60
2019-05-14T04:24:31.491Z,2.65
2019-05-14T04:27:07.747Z,2.85
2019-05-14T04:29:33.204Z,2.60
2019-05-14T04:32:02.404Z,2.67
2019-05-14T04:34:31.616Z,2.55
2019-05-14T04:37:00.757Z,2.65
2019-05-14T04:39:30.883Z,3.17
2019-05-14T04:42:00.390Z,2.80
2019-05-14T04:44:29.972Z,2.83
2019-05-14T04:47:00.097Z,2.58
2019-05-14T04:49:30.852Z,2.55
2019-05-14T04:52:00.004Z,2.80
2019-05-14T04:54:30.311Z,3.10
2019-05-14T04:57:00.243Z,2.92
2019-05-14T04:59:30.161Z,2.72
2019-05-14T05:02:00.258Z,2.92
2019-05-14T05:04:30.282Z,2.72
2019-05-14T05:06:59.744Z,3.17
2019-05-14T05:09:30.866Z,3.12
2019-05-14T05:12:00.792Z,3.00
2019-05-14T05:14:30.005Z,2.85
2019-05-14T05:16:59.723Z,3.20
2019-05-14T05:19:29.366Z,2.90
2019-05-14T05:21:59.354Z,3.37
2019-05-14T05:24:28.888Z,3.47
2019-05-14T05:26:58.804Z,4.28
2019-05-14T05:29:28.733Z,3.42
2019-05-14T05:31:59.348Z,3.60
2019-05-14T05:34:28.738Z,4.00
2019-05-14T05:36:59.284Z,4.10
2019-05-14T05:39:28.830Z,3.77
2019-05-14T05:41:58.634Z,4.15
2019-05-14T05:44:28.830Z,4.37
2019-05-14T05:46:59.627Z,3.40
2019-05-14T05:49:29.334Z,3.85
2019-05-14T05:51:59.281Z,4.40
2019-05-14T05:54:29.356Z,4.37
2019-05-14T05:56:58.861Z,3.95
2019-05-14T05:59:29.361Z,4.22
2019-05-14T06:01:58.906Z,4.58
2019-05-14T06:04:29.041Z,3.52
2019-05-14T06:06:59.757Z,3.80
2019-05-14T06:09:29.385Z,4.33
2019-05-14T06:11:59.183Z,3.62
2019-05-14T06:14:29.137Z,3.85
2019-05-14T06:16:59.225Z,4.00
2019-05-14T06:19:29.129Z,3.65
2019-05-14T06:21:59.770Z,3.60
2019-05-14T06:24:29.215Z,3.47
2019-05-14T06:26:58.783Z,4.35
2019-05-14T06:29:29.007Z,3.90
2019-05-14T06:31:59.071Z,3.77
2019-05-14T06:34:29.102Z,4.03
2019-05-14T06:36:59.271Z,3.45
2019-05-14T06:39:29.031Z,3.85
2019-05-14T06:41:58.686Z,3.50
2019-05-14T06:44:29.413Z,3.90
2019-05-14T06:46:59.233Z,3.30
2019-05-14T06:49:29.135Z,3.08
2019-05-14T06:51:59.258Z,3.30
2019-05-14T06:54:29.530Z,3.25
2019-05-14T06:56:58.709Z,3.00
2019-05-14T06:59:28.777Z,2.83
2019-05-14T07:01:58.308Z,3.00
2019-05-14T07:04:28.853Z,3.00
2019-05-14T07:06:59.139Z,2.90
2019-05-14T07:09:29.088Z,3.00
2019-05-14T07:11:58.984Z,3.10
2019-05-14T07:14:28.427Z,2.45
2019-05-14T07:16:58.916Z,2.77
2019-05-14T07:19:29.388Z,3.05
2019-05-14T07:21:59.172Z,3.10
2019-05-14T07:24:28.506Z,2.75
2019-05-14T07:26:58.605Z,3.50
2019-05-14T07:29:29.255Z,2.52
2019-05-14T07:31:58.654Z,2.60
2019-05-14T07:34:28.477Z,2.80
2019-05-14T07:36:58.713Z,2.87
2019-05-14T07:39:29.088Z,2.85
2019-05-14T07:41:59.239Z,2.77
2019-05-14T07:44:29.672Z,3.02
2019-05-14T07:46:59.145Z,2.95
2019-05-14T07:49:29.194Z,2.52
2019-05-14T07:51:58.883Z,3.08
2019-05-14T07:54:28.468Z,2.90
2019-05-14T07:56:59.091Z,2.62
2019-05-14T07:59:28.814Z,2.90
2019-05-14T08:01:58.658Z,3.02
2019-05-14T08:04:28.929Z,2.83
2019-05-14T08:06:58.888Z,2.70
2019-05-14T08:09:28.445Z,2.20
2019-05-14T08:11:58.731Z,2.80
2019-05-14T08:14:29.374Z,2.62
2019-05-14T08:16:59.630Z,2.45
2019-05-14T08:19:31.525Z,2.55
2019-05-14T08:21:59.778Z,2.70
2019-05-14T08:24:30.047Z,2.98
2019-05-14T08:26:59.542Z,2.90
2019-05-14T08:29:28.794Z,2.30
2019-05-14T08:31:58.328Z,2.58
2019-05-14T08:34:29.436Z,2.90
2019-05-14T08:36:58.931Z,2.50
2019-05-14T08:39:28.681Z,2.52
2019-05-14T08:42:03.539Z,2.47
2019-05-14T08:44:29.557Z,3.12
2019-05-14T08:46:59.154Z,2.62
2019-05-14T08:49:38.900Z,2.90
2019-05-14T08:51:59.675Z,2.95
2019-05-14T08:54:28.863Z,2.70
2019-05-14T08:56:58.496Z,2.70
2019-05-14T08:59:28.676Z,3.00
2019-05-14T09:02:05.863Z,2.72
2019-05-14T09:04:30.641Z,2.70
2019-05-14T09:06:59.832Z,2.77
2019-05-14T09:09:29.325Z,2.50
2019-05-14T09:11:59.878Z,2.62
2019-05-14T09:14:29.267Z,2.70
2019-05-14T09:16:59.937Z,2.75
2019-05-14T09:19:29.290Z,2.30
2019-05-14T09:21:59.020Z,2.85
2019-05-14T09:24:29.343Z,3.22
2019-05-14T09:26:59.362Z,3.08
2019-05-14T09:29:29.846Z,3.40
2019-05-14T09:31:59.541Z,3.37
2019-05-14T09:34:29.166Z,3.58
2019-05-14T09:36:59.485Z,3.98
2019-05-14T09:39:29.193Z,3.67
2019-05-14T09:41:58.494Z,3.83
2019-05-14T09:44:29.303Z,3.95
2019-05-14T09:46:59.337Z,3.55
2019-05-14T09:49:28.923Z,3.42
2019-05-14T09:51:58.385Z,3.47
2019-05-14T09:54:28.683Z,4.05
2019-05-14T09:56:59.182Z,3.75
2019-05-14T09:59:28.805Z,3.50
2019-05-14T10:01:58.634Z,3.30
2019-05-14T10:04:29.181Z,3.35
2019-05-14T10:06:59.263Z,3.55
2019-05-14T10:09:29.110Z,3.77
2019-05-14T10:11:59.295Z,4.03
2019-05-14T10:14:29.803Z,3.37
2019-05-14T10:16:59.141Z,3.50
2019-05-14T10:19:29.668Z,3.65
2019-05-14T10:21:59.325Z,3.30
2019-05-14T10:24:29.164Z,3.37
2019-05-14T10:26:58.712Z,3.30
2019-05-14T10:29:28.677Z,3.05
2019-05-14T10:31:59.254Z,3.02
2019-05-14T10:34:28.792Z,3.15
2019-05-14T10:36:59.045Z,3.15
2019-05-14T10:39:29.890Z,3.25
2019-05-14T10:41:59.427Z,3.00
2019-05-14T10:44:29.273Z,3.40
2019-05-14T10:46:59.111Z,2.52
2019-05-14T10:49:29.973Z,2.75
2019-05-14T10:51:59.116Z,2.92
2019-05-14T10:54:29.250Z,2.62
2019-05-14T10:56:59.356Z,2.80
2019-05-14T10:59:29.561Z,2.65
2019-05-14T11:01:58.767Z,3.10
2019-05-14T11:04:28.637Z,2.90
2019-05-14T11:06:57.982Z,3.20
2019-05-14T11:09:28.575Z,2.70
2019-05-14T11:11:58.429Z,2.80
2019-05-14T11:14:31.776Z,2.95
2019-05-14T11:16:59.406Z,2.77
2019-05-14T11:19:28.601Z,2.80
2019-05-14T11:21:58.028Z,3.12
2019-05-14T11:24:29.519Z,2.80
2019-05-14T11:26:59.244Z,2.70
2019-05-14T11:29:29.732Z,2.52
2019-05-14T11:31:59.052Z,3.15
2019-05-14T11:34:28.871Z,2.70
2019-05-14T11:36:59.032Z,2.83
2019-05-14T11:39:28.898Z,2.85
2019-05-14T11:41:59.172Z,2.80
2019-05-14T11:44:28.776Z,2.62
2019-05-14T11:47:02.439Z,2.75
2019-05-14T11:49:29.331Z,2.60
2019-05-14T11:52:06.488Z,2.58
2019-05-14T11:54:29.368Z,2.67
2019-05-14T11:56:58.994Z,2.60
2019-05-14T11:59:28.572Z,2.27
2019-05-14T12:01:59.336Z,2.20
2019-05-14T12:04:28.929Z,2.30
2019-05-14T12:06:59.197Z,2.70
2019-05-14T12:09:28.646Z,2.80
2019-05-14T12:11:58.728Z,2.40
2019-05-14T12:14:28.574Z,2.92
2019-05-14T12:17:00.090Z,2.42
2019-05-14T12:19:28.621Z,2.40
2019-05-14T12:22:06.709Z,2.40
2019-05-14T12:24:29.303Z,2.30
2019-05-14T12:26:58.783Z,2.47
2019-05-14T12:29:29.199Z,2.47
2019-05-14T12:31:58.772Z,2.52
2019-05-14T12:34:29.581Z,2.60
2019-05-14T12:36:58.831Z,2.58
2019-05-14T12:39:29.375Z,2.40
2019-05-14T12:41:58.655Z,2.35
2019-05-14T12:44:29.190Z,2.50
2019-05-14T12:46:58.856Z,2.42
2019-05-14T12:49:28.176Z,2.30
2019-05-14T12:51:59.197Z,2.55
2019-05-14T12:54:29.689Z,2.20
2019-05-14T12:56:59.204Z,2.40
2019-05-14T12:59:28.637Z,2.05
2019-05-14T13:01:58.682Z,2.15
2019-05-14T13:04:28.594Z,2.42
2019-05-14T13:06:59.810Z,2.10
2019-05-14T13:09:28.830Z,2.17
2019-05-14T13:11:58.690Z,2.42
2019-05-14T13:14:28.382Z,2.55
2019-05-14T13:16:59.849Z,2.12
2019-05-14T13:19:29.153Z,2.33
2019-05-14T13:22:12.081Z,2.30
2019-05-14T13:24:29.189Z,2.40
2019-05-14T13:26:58.934Z,2.10
2019-05-14T13:29:28.954Z,2.27
2019-05-14T13:31:59.228Z,2.42
2019-05-14T13:34:29.172Z,2.58
2019-05-14T13:36:59.708Z,2.33
2019-05-14T13:39:29.253Z,2.37
2019-05-14T13:41:58.944Z,2.50
2019-05-14T13:44:29.292Z,2.55
2019-05-14T13:46:59.657Z,2.20
2019-05-14T13:49:30.445Z,1.98
2019-05-14T13:51:59.577Z,2.20
2019-05-14T13:54:31.714Z,2.92
2019-05-14T13:56:59.579Z,2.40
2019-05-14T13:59:28.771Z,2.40
2019-05-14T14:01:59.203Z,2.30
2019-05-14T14:04:28.698Z,2.35
2019-05-14T14:06:59.041Z,2.30
2019-05-14T14:09:31.438Z,2.40
2019-05-14T14:11:59.475Z,2.60
2019-05-14T14:14:29.219Z,2.50
2019-05-14T14:16:58.544Z,2.55
2019-05-14T14:19:28.313Z,2.60
2019-05-14T14:21:59.019Z,2.20
2019-05-14T14:24:29.163Z,2.40
2019-05-14T14:26:58.561Z,2.40
2019-05-14T14:29:27.697Z,2.45
2019-05-14T14:31:58.829Z,2.42
2019-05-14T14:34:29.044Z,2.25
2019-05-14T14:36:59.302Z,2.12
2019-05-14T14:39:28.753Z,2.10
2019-05-14T14:41:58.594Z,2.20
2019-05-14T14:44:29.179Z,2.85
2019-05-14T14:46:58.458Z,2.10
2019-05-14T14:49:28.141Z,2.58
2019-05-14T14:51:58.896Z,2.08
2019-05-14T14:54:28.877Z,2.20
2019-05-14T14:56:59.234Z,1.92
2019-05-14T14:59:30.345Z,2.12
2019-05-14T15:01:59.983Z,2.05
2019-05-14T15:04:29.148Z,2.00
2019-05-14T15:06:59.767Z,2.02
2019-05-14T15:09:29.197Z,1.90
2019-05-14T15:11:59.823Z,2.20
2019-05-14T15:14:29.838Z,2.00
2019-05-14T15:16:59.242Z,2.15
2019-05-14T15:19:29.835Z,2.37
2019-05-14T15:21:59.661Z,2.45
2019-05-14T15:24:28.795Z,2.20
2019-05-14T15:27:06.891Z,2.25
2019-05-14T15:29:28.891Z,2.30
2019-05-14T15:31:59.268Z,2.30
2019-05-14T15:34:29.749Z,2.00
2019-05-14T15:36:59.818Z,2.12
2019-05-14T15:39:30.168Z,2.27
2019-05-14T15:42:05.461Z,2.10
2019-05-14T15:44:47.639Z,2.25
2019-05-14T15:47:01.772Z,2.12
2019-05-14T15:49:30.951Z,1.87
2019-05-14T15:52:00.125Z,2.60
2019-05-14T15:54:42.891Z,3.37
2019-05-14T15:57:00.184Z,3.83
2019-05-14T15:59:29.364Z,3.22
2019-05-14T16:01:58.579Z,3.10
2019-05-14T16:04:28.632Z,2.95
2019-05-14T16:06:58.699Z,2.87
2019-05-14T16:09:28.902Z,2.58
2019-05-14T16:11:58.992Z,2.55
2019-05-14T16:14:30.062Z,2.72
2019-05-14T16:16:59.085Z,2.92
2019-05-14T16:19:28.540Z,2.60
2019-05-14T16:21:58.640Z,2.72
2019-05-14T16:24:28.654Z,2.52
2019-05-14T16:27:00.151Z,2.50
2019-05-14T16:29:40.327Z,2.60
2019-05-14T16:31:59.999Z,2.72
2019-05-14T16:34:29.123Z,2.42
2019-05-14T16:36:58.511Z,2.92
2019-05-14T16:39:28.488Z,2.47
2019-05-14T16:41:58.316Z,2.45
2019-05-14T16:44:28.359Z,6.92
2019-05-14T16:46:58.743Z,6.67
2019-05-14T16:49:29.913Z,6.42
2019-05-14T16:51:59.665Z,5.37
2019-05-14T16:54:29.549Z,5.30
2019-05-14T16:56:59.243Z,5.55
2019-05-14T16:59:29.597Z,5.75
2019-05-14T17:01:59.015Z,5.87
2019-05-14T17:04:29.330Z,6.10
2019-05-14T17:06:59.099Z,6.67
2019-05-14T17:09:30.124Z,6.45
2019-05-14T17:11:59.270Z,5.75
2019-05-14T17:14:29.150Z,5.42
2019-05-14T17:16:59.528Z,5.87
2019-05-14T17:19:29.819Z,5.80
2019-05-14T17:21:59.766Z,6.42
2019-05-14T17:24:29.406Z,4.47
2019-05-14T17:26:58.759Z,5.35
2019-05-14T17:29:28.608Z,5.90
2019-05-14T17:31:58.259Z,6.22
2019-05-14T17:34:29.283Z,6.00
2019-05-14T17:36:59.428Z,6.55
2019-05-14T17:39:28.922Z,6.47
2019-05-14T17:41:58.882Z,5.60
2019-05-14T17:44:28.387Z,5.15
2019-05-14T17:46:58.719Z,5.30
2019-05-14T17:49:28.419Z,5.10
2019-05-14T17:51:58.191Z,5.35
2019-05-14T17:54:28.410Z,4.80
2019-05-14T17:56:59.191Z,5.75
2019-05-14T17:59:29.855Z,6.22
2019-05-14T18:01:59.421Z,5.85
2019-05-14T18:04:28.813Z,6.70
2019-05-14T18:06:59.239Z,6.83
2019-05-14T18:09:29.276Z,6.42
2019-05-14T18:11:58.773Z,7.20
2019-05-14T18:14:28.531Z,7.25
2019-05-14T18:16:58.595Z,6.72
2019-05-14T18:19:28.932Z,7.00
2019-05-14T18:21:59.335Z,7.55
2019-05-14T18:24:28.936Z,7.10
2019-05-14T18:26:58.093Z,7.03
2019-05-14T18:29:29.539Z,6.53
2019-05-14T18:32:01.041Z,6.90
2019-05-14T18:34:29.094Z,6.35
2019-05-14T18:37:00.806Z,7.25
2019-05-14T18:39:29.271Z,6.28
2019-05-14T18:42:00.599Z,6.28
2019-05-14T18:44:29.340Z,6.12
2019-05-14T18:46:59.388Z,6.60
2019-05-14T18:49:28.876Z,6.10
2019-05-14T18:51:59.277Z,5.72
2019-05-14T18:54:29.336Z,6.28
2019-05-14T18:56:59.736Z,6.47
2019-05-14T18:59:30.822Z,5.62
2019-05-14T19:02:00.214Z,5.92
2019-05-14T19:04:29.385Z,5.65
2019-05-14T19:06:59.118Z,6.53
2019-05-14T19:09:29.341Z,6.40
2019-05-14T19:11:58.878Z,6.05
2019-05-14T19:14:29.248Z,6.85
2019-05-14T19:16:59.185Z,6.80
2019-05-14T19:19:29.379Z,6.47
2019-05-14T19:21:58.734Z,6.65
2019-05-14T19:24:28.676Z,6.53
2019-05-14T19:26:59.514Z,6.37
2019-05-14T19:29:28.864Z,6.50
2019-05-14T19:31:58.025Z,6.67
2019-05-14T19:34:28.756Z,6.78
2019-05-14T19:36:58.383Z,6.17
2019-05-14T19:39:28.304Z,6.47
2019-05-14T19:41:57.821Z,6.35
2019-05-14T19:44:27.062Z,6.83
2019-05-14T19:46:56.382Z,6.87
2019-05-14T19:49:25.544Z,5.87
2019-05-14T19:51:54.669Z,6.22
2019-05-14T19:54:24.015Z,6.40
2019-05-14T19:56:57.346Z,6.40
2019-05-14T19:59:25.887Z,6.87
2019-05-14T20:01:55.008Z,7.95
2019-05-14T20:04:24.202Z,8.85
2019-05-14T20:06:53.332Z,9.75
2019-05-14T20:09:22.550Z,9.15
2019-05-14T20:11:51.699Z,9.78
2019-05-14T20:14:20.847Z,9.75
2019-05-14T20:16:50.461Z,9.58
2019-05-14T20:19:19.620Z,9.50
2019-05-14T20:21:48.765Z,8.08
2019-05-14T20:24:18.908Z,8.78
2019-05-14T20:26:48.951Z,8.53
2019-05-14T20:29:19.401Z,8.20
2019-05-14T20:31:49.065Z,7.97
2019-05-14T20:34:19.140Z,8.58
2019-05-14T20:36:48.726Z,9.20
2019-05-14T20:39:18.354Z,9.15
2019-05-14T20:41:49.098Z,8.18
2019-05-14T20:44:19.189Z,7.90
2019-05-14T20:46:48.965Z,8.28
2019-05-14T20:49:19.045Z,9.13
2019-05-14T20:51:49.485Z,7.12
2019-05-14T20:54:18.861Z,7.65
2019-05-14T20:56:49.248Z,7.65
2019-05-14T20:59:19.147Z,8.20
2019-05-14T21:01:48.565Z,6.97
2019-05-14T21:04:18.868Z,8.95
2019-05-14T21:06:48.758Z,9.65
2019-05-14T21:09:19.116Z,9.45
2019-05-14T21:11:49.228Z,9.55
2019-05-14T21:14:18.754Z,9.40
2019-05-14T21:16:48.851Z,9.15
2019-05-14T21:19:18.238Z,8.90
2019-05-14T21:21:49.209Z,9.35
2019-05-14T21:24:21.904Z,9.65
2019-05-14T21:26:49.155Z,9.63
2019-05-14T21:29:18.374Z,10.60
2019-05-14T21:31:47.530Z,9.93
2019-05-14T21:34:16.673Z,7.83
2019-05-14T21:36:48.773Z,7.05
2019-05-14T21:39:18.896Z,6.60
2019-05-14T21:41:48.952Z,6.25
2019-05-14T21:44:18.815Z,5.92
2019-05-14T21:46:48.362Z,6.10
2019-05-14T21:49:19.042Z,6.50
2019-05-14T21:51:51.323Z,5.87
2019-05-14T21:54:19.259Z,5.30
2019-05-14T21:56:49.594Z,5.65
2019-05-14T21:59:19.015Z,5.28
2019-05-14T22:01:48.603Z,5.72
2019-05-14T22:04:18.686Z,6.00
2019-05-14T22:06:49.083Z,5.55
2019-05-14T22:09:18.393Z,5.50
2019-05-14T22:11:48.541Z,5.62
2019-05-14T22:14:18.740Z,5.92
2019-05-14T22:16:48.749Z,5.70
2019-05-14T22:19:19.072Z,6.12
2019-05-14T22:21:49.099Z,5.42
2019-05-14T22:24:18.817Z,5.17
2019-05-14T22:26:49.380Z,5.12
2019-05-14T22:29:18.533Z,5.20
2019-05-14T22:31:47.868Z,5.05
2019-05-14T22:34:18.422Z,5.30
2019-05-14T22:36:48.505Z,4.92
2019-05-14T22:39:19.976Z,5.22
2019-05-14T22:41:48.796Z,5.40
2019-05-14T22:44:18.703Z,5.25
2019-05-14T22:46:49.027Z,4.80
2019-05-14T22:49:19.084Z,5.45
2019-05-14T22:51:49.243Z,5.30
2019-05-14T22:54:20.995Z,5.70
2019-05-14T22:56:49.493Z,5.30
2019-05-14T22:59:20.631Z,5.25
2019-05-14T23:01:49.496Z,5.22
2019-05-14T23:04:18.651Z,5.15
2019-05-14T23:06:48.893Z,5.22
2019-05-14T23:09:19.041Z,5.33
2019-05-14T23:11:48.336Z,6.28
2019-05-14T23:14:18.574Z,4.30
2019-05-14T23:16:49.163Z,4.87
2019-05-14T23:19:18.802Z,4.85
2019-05-14T23:21:48.444Z,5.20
2019-05-14T23:24:18.936Z,5.78
2019-05-14T23:26:49.278Z,5.40
2019-05-14T23:29:18.681Z,6.03
2019-05-14T23:31:48.847Z,5.33
2019-05-14T23:34:18.992Z,5.40
2019-05-14T23:36:48.436Z,5.95
2019-05-14T23:39:17.634Z,5.33
2019-05-14T23:41:48.782Z,6.30
2019-05-14T23:44:19.148Z,5.83
2019-05-14T23:46:48.373Z,5.78
2019-05-14T23:49:18.461Z,6.85
2019-05-14T23:51:48.006Z,5.97
2019-05-14T23:54:18.229Z,6.05
2019-05-14T23:56:48.851Z,6.40
2019-05-14T23:59:18.488Z,6.47
